Time;durP1;ratioP1;P1;durP2;ratioP2;P2;SDS_P1;SDS_P2;PMS_P1;PMS_P2;Temp;Humidity;BMP_temperature;BMP_pressure;BME280_temperature;BME280_humidity;BME280_pressure;Samples;Min_cycle;Max_cycle;Signal;HPM_P1;HPM_P2
2024/03/18 00:01:35;;;;;;;;;;;;;;;10.09;100.00;95758.78;10492700;28;2820;-65
2024/03/18 00:06:37;;;;;;;;;;;;;;;10.13;100.00;95759.88;10479923;28;2809;-74
2024/03/18 00:11:39;;;;;;;;;;;;;;;10.06;100.00;95766.59;10490928;28;2823;-72
2024/03/18 00:16:40;;;;;;;;;;;;;;;10.06;100.00;95769.28;10495980;28;2796;-66
2024/03/18 00:21:42;;;;;;;;;;;;;;;9.99;100.00;95764.19;10492829;28;2820;-71
2024/03/18 00:26:44;;;;;;;;;;;;;;;9.90;100.00;95755.06;10496473;28;2855;-72
2024/03/18 00:31:46;;;;;;;;;;;;;;;9.88;100.00;95751.84;10494514;28;2829;-65
2024/03/18 00:36:47;;;;;;;;;;;;;;;9.91;100.00;95751.28;10487700;28;3010;-66
2024/03/18 00:41:49;;;;;;;;;;;;;;;9.83;100.00;95751.84;10494498;28;2765;-67
2024/03/18 00:46:51;;;;;;;;;;;;;;;9.83;100.00;95738.41;10495973;28;2876;-66
2024/03/18 00:51:52;;;;;;;;;;;;;;;9.78;100.00;95736.53;10495452;28;2814;-65
2024/03/18 00:56:54;;;;;;;;;;;;;;;9.65;100.00;95737.88;10498521;28;2821;-72
2024/03/18 01:01:56;;;;;;;;;;;;;;;9.64;100.00;95730.91;10502284;28;2986;-65
2024/03/18 01:07:01;;;;;;;;;;;;;;;9.70;100.00;95729.03;10499820;28;2932;-70
2024/03/18 01:12:02;;;;;;;;;;;;;;;9.69;100.00;95722.84;10504877;28;2791;-66
2024/03/18 01:17:04;;;;;;;;;;;;;;;9.82;100.00;95715.34;10498803;28;2853;-67
2024/03/18 01:22:05;;;;;;;;;;;;;;;9.80;100.00;95720.16;10500155;28;2828;-67
2024/03/18 01:27:07;;;;;;;;;;;;;;;9.78;100.00;95708.88;10501956;28;2816;-66
2024/03/18 01:32:09;;;;;;;;;;;;;;;9.84;100.00;95705.91;10497104;28;2740;-68
2024/03/18 01:37:10;;;;;;;;;;;;;;;9.79;100.00;95691.69;10502062;28;2874;-66
2024/03/18 01:42:11;;;;;;;;;;;;;;;9.83;100.00;95695.47;10496655;28;2864;-67
2024/03/18 01:47:13;;;;;;;;;;;;;;;9.82;100.00;95691.16;10498954;28;2857;-66
2024/03/18 01:52:15;;;;;;;;;;;;;;;9.62;100.00;95692.81;10500633;28;2914;-65
2024/03/18 01:57:17;;;;;;;;;;;;;;;9.46;100.00;95678.56;10504072;28;2652;-65
2024/03/18 02:02:18;;;;;;;;;;;;;;;9.36;100.00;95689.31;10500854;28;2864;-65
2024/03/18 02:07:19;;;;;;;;;;;;;;;9.26;100.00;95697.34;10503998;28;2872;-65
2024/03/18 02:12:21;;;;;;;;;;;;;;;9.21;100.00;95689.28;10495501;28;2861;-67
2024/03/18 02:17:23;;;;;;;;;;;;;;;9.23;100.00;95689.03;10499430;28;2829;-66
2024/03/18 02:22:25;;;;;;;;;;;;;;;9.18;100.00;95685.28;10496392;28;2787;-66
2024/03/18 02:27:26;;;;;;;;;;;;;;;9.19;100.00;95676.16;10498059;28;2934;-67
2024/03/18 02:32:30;;;;;;;;;;;;;;;9.19;100.00;95673.47;10492864;28;2869;-66
2024/03/18 02:37:32;;;;;;;;;;;;;;;9.23;100.00;95664.91;10499997;28;2874;-66
2024/03/18 02:42:33;;;;;;;;;;;;;;;9.24;100.00;95661.13;10497319;28;2825;-68
2024/03/18 02:47:35;;;;;;;;;;;;;;;9.26;100.00;95659.00;10495197;28;2817;-66
2024/03/18 02:52:36;;;;;;;;;;;;;;;9.20;100.00;95667.03;10496725;28;2837;-67
2024/03/18 02:57:39;;;;;;;;;;;;;;;9.19;100.00;95660.06;10494833;28;2801;-68
2024/03/18 03:02:41;;;;;;;;;;;;;;;9.21;100.00;95660.59;10494553;28;2867;-67
2024/03/18 03:07:46;;;;;;;;;;;;;;;9.20;100.00;95656.28;10482014;28;2818;-66
2024/03/18 03:12:48;;;;;;;;;;;;;;;9.17;100.00;95651.47;10496669;28;2853;-66
2024/03/18 03:17:49;;;;;;;;;;;;;;;9.09;100.00;95638.59;10497455;28;2596;-67
2024/03/18 03:22:51;;;;;;;;;;;;;;;9.14;100.00;95635.91;10498851;28;2813;-66
2024/03/18 03:27:52;;;;;;;;;;;;;;;9.13;100.00;95631.63;10494000;28;2800;-71
2024/03/18 03:32:54;;;;;;;;;;;;;;;9.15;100.00;95640.19;10502267;28;2811;-65
2024/03/18 03:37:57;;;;;;;;;;;;;;;9.17;100.00;95629.22;10497704;28;2858;-66
2024/03/18 03:42:59;;;;;;;;;;;;;;;9.24;100.00;95623.59;10494523;28;2808;-65
2024/03/18 03:48:00;;;;;;;;;;;;;;;9.24;100.00;95628.94;10493058;28;2839;-65
2024/03/18 03:53:02;;;;;;;;;;;;;;;9.21;100.00;95620.34;10501216;28;2841;-65
2024/03/18 03:58:05;;;;;;;;;;;;;;;9.28;100.00;95608.56;10482194;28;2853;-66
2024/03/18 04:03:07;;;;;;;;;;;;;;;9.34;100.00;95612.84;10494342;28;2849;-66
2024/03/18 04:08:09;;;;;;;;;;;;;;;9.33;100.00;95616.59;10491378;28;2801;-67
2024/03/18 04:13:10;;;;;;;;;;;;;;;9.35;100.00;95604.53;10494542;28;2889;-64
2024/03/18 04:18:12;;;;;;;;;;;;;;;9.31;100.00;95598.09;10492139;28;2794;-68
2024/03/18 04:23:14;;;;;;;;;;;;;;;9.37;100.00;95598.91;10495866;28;2924;-67
2024/03/18 04:28:16;;;;;;;;;;;;;;;9.38;100.00;95601.31;10505134;28;2886;-66
2024/03/18 04:33:18;;;;;;;;;;;;;;;9.40;100.00;95591.09;10499840;28;2883;-65
2024/03/18 04:38:20;;;;;;;;;;;;;;;9.43;100.00;95589.78;10500603;28;2813;-67
2024/03/18 04:43:23;;;;;;;;;;;;;;;9.41;100.00;95581.19;10500826;28;2810;-65
2024/03/18 04:48:24;;;;;;;;;;;;;;;9.41;100.00;95583.84;10508714;28;2751;-66
2024/03/18 04:53:26;;;;;;;;;;;;;;;9.41;100.00;95581.97;10504032;28;2790;-66
2024/03/18 04:58:27;;;;;;;;;;;;;;;9.37;100.00;95588.16;10499484;28;2845;-66
2024/03/18 05:03:29;;;;;;;;;;;;;;;9.35;100.00;95587.63;10499118;28;2812;-65
2024/03/18 05:08:31;;;;;;;;;;;;;;;9.34;100.00;95584.13;10495335;28;2794;-67
2024/03/18 05:13:33;;;;;;;;;;;;;;;9.39;100.00;95577.97;10498025;28;2851;-66
2024/03/18 05:18:34;;;;;;;;;;;;;;;9.40;100.00;95576.88;10499710;28;2722;-66
2024/03/18 05:23:36;;;;;;;;;;;;;;;9.44;100.00;95576.09;10498081;28;2737;-65
2024/03/18 05:28:38;;;;;;;;;;;;;;;9.44;100.00;95568.03;10493498;28;2845;-65
2024/03/18 05:33:40;;;;;;;;;;;;;;;9.43;100.00;95566.44;10501983;28;2801;-66
2024/03/18 05:38:41;;;;;;;;;;;;;;;9.52;100.00;95550.56;10497672;28;2766;-66
2024/03/18 05:43:43;;;;;;;;;;;;;;;9.60;100.00;95550.00;10495970;28;2849;-67
2024/03/18 05:48:44;;;;;;;;;;;;;;;9.68;100.00;95541.41;10495390;28;2781;-65
2024/03/18 05:53:46;;;;;;;;;;;;;;;9.77;100.00;95543.53;10499770;28;2812;-66
2024/03/18 05:58:47;;;;;;;;;;;;;;;9.71;100.00;95542.75;10493719;28;2865;-66
2024/03/18 06:03:49;;;;;;;;;;;;;;;9.77;100.00;95546.22;10473254;28;2805;-66
2024/03/18 06:08:50;;;;;;;;;;;;;;;9.97;100.00;95532.72;10481653;28;2852;-66
2024/03/18 06:13:51;;;;;;;;;;;;;;;10.12;100.00;95526.47;10496955;28;2705;-66
2024/03/18 06:18:54;;;;;;;;;;;;;;;10.34;100.00;95536.88;10493180;28;2885;-66
2024/03/18 06:23:59;;;;;;;;;;;;;;;10.62;100.00;95532.66;10496126;28;2827;-66
2024/03/18 06:29:01;;;;;;;;;;;;;;;10.59;100.00;95531.34;10497074;28;2870;-66
2024/03/18 06:34:02;;;;;;;;;;;;;;;10.71;100.00;95534.47;10495574;28;2927;-67
2024/03/18 06:39:04;;;;;;;;;;;;;;;10.70;100.00;95516.75;10494660;28;2885;-65
2024/03/18 06:44:06;;;;;;;;;;;;;;;10.93;100.00;95514.41;10496935;28;2999;-75
2024/03/18 06:49:07;;;;;;;;;;;;;;;11.06;100.00;95517.25;10501747;28;2793;-69
2024/03/18 06:54:08;;;;;;;;;;;;;;;11.30;100.00;95503.03;10483316;28;2836;-70
2024/03/18 06:59:10;;;;;;;;;;;;;;;11.52;100.00;95499.88;10472121;28;2841;-67
2024/03/18 07:04:12;;;;;;;;;;;;;;;11.37;100.00;95495.44;10475898;28;2828;-68
2024/03/18 07:09:15;;;;;;;;;;;;;;;11.19;100.00;95499.63;10499866;28;2825;-67
2024/03/18 07:14:18;;;;;;;;;;;;;;;11.34;100.00;95496.00;10497774;28;2753;-66
2024/03/18 07:19:19;;;;;;;;;;;;;;;11.38;100.00;95495.13;10494582;28;2649;-67
2024/03/18 07:24:21;;;;;;;;;;;;;;;11.61;100.00;95495.44;10472068;28;2800;-67
2024/03/18 07:29:26;;;;;;;;;;;;;;;11.77;100.00;95499.59;10494943;28;2989;-69
2024/03/18 07:34:28;;;;;;;;;;;;;;;12.00;100.00;95494.47;10497689;28;2869;-71
2024/03/18 07:39:30;;;;;;;;;;;;;;;12.18;100.00;95480.22;10497928;28;2769;-69
2024/03/18 07:44:32;;;;;;;;;;;;;;;12.12;100.00;95481.38;10494553;28;2859;-71
2024/03/18 07:49:33;;;;;;;;;;;;;;;12.20;100.00;95467.25;10499741;28;2656;-70
2024/03/18 07:54:43;;;;;;;;;;;;;;;12.51;100.00;95473.00;10496567;28;2798;-71
2024/03/18 07:59:47;;;;;;;;;;;;;;;12.44;100.00;95472.56;10482258;28;2835;-71
2024/03/18 08:04:50;;;;;;;;;;;;;;;12.55;100.00;95478.63;10508644;28;2918;-71
2024/03/18 08:09:53;;;;;;;;;;;;;;;12.73;100.00;95461.63;10508202;28;2809;-69
2024/03/18 08:15:10;;;;;;;;;;;;;;;12.76;100.00;95463.72;10506883;28;2556;-70
2024/03/18 08:20:12;;;;;;;;;;;;;;;12.95;100.00;95464.47;10487940;28;2913;-69
2024/03/18 08:30:29;;;;;;;;;;;;;;;12.63;100.00;95453.69;10503988;28;2836;-70
2024/03/18 08:35:31;;;;;;;;;;;;;;;12.76;100.00;95462.91;10503310;28;2868;-67
2024/03/18 08:40:32;;;;;;;;;;;;;;;12.98;100.00;95461.19;10499907;28;2771;-70
2024/03/18 08:45:34;;;;;;;;;;;;;;;12.75;100.00;95459.44;10501726;28;2583;-69
2024/03/18 08:50:38;;;;;;;;;;;;;;;12.76;100.00;95460.22;10478360;28;2853;-68
2024/03/18 08:55:39;;;;;;;;;;;;;;;12.62;100.00;95462.88;10502333;28;2845;-67
2024/03/18 09:00:41;;;;;;;;;;;;;;;12.86;100.00;95458.16;10497898;28;2860;-69
2024/03/18 09:05:42;;;;;;;;;;;;;;;13.33;100.00;95450.88;10499093;28;2627;-70
2024/03/18 09:10:44;;;;;;;;;;;;;;;13.37;100.00;95445.69;10496227;28;2805;-71
2024/03/18 09:15:45;;;;;;;;;;;;;;;12.95;100.00;95455.59;10498327;28;2738;-69
2024/03/18 09:20:47;;;;;;;;;;;;;;;12.67;100.00;95449.31;10483375;28;2973;-68
2024/03/18 09:25:48;;;;;;;;;;;;;;;12.34;100.00;95451.97;10499686;28;2881;-67
2024/03/18 09:30:50;;;;;;;;;;;;;;;12.39;100.00;95451.09;10500189;28;2893;-68
2024/03/18 09:35:53;;;;;;;;;;;;;;;12.37;100.00;95459.47;10500988;28;2856;-69
2024/03/18 09:40:57;;;;;;;;;;;;;;;12.18;100.00;95453.28;10496314;28;2808;-69
2024/03/18 09:45:59;;;;;;;;;;;;;;;12.25;100.00;95448.31;10494222;28;2784;-68
2024/03/18 09:51:02;;;;;;;;;;;;;;;12.23;100.00;95445.13;10496135;28;2861;-69
2024/03/18 09:56:04;;;;;;;;;;;;;;;12.14;100.00;95441.47;10496838;28;2836;-67
2024/03/18 10:01:06;;;;;;;;;;;;;;;12.38;100.00;95441.41;10498808;28;2741;-68
2024/03/18 10:06:08;;;;;;;;;;;;;;;12.31;100.00;95432.88;10499205;28;2889;-71
2024/03/18 10:11:09;;;;;;;;;;;;;;;12.36;100.00;95427.41;10495327;28;3015;-70
2024/03/18 10:16:11;;;;;;;;;;;;;;;12.25;100.00;95425.97;10495475;28;2746;-67
2024/03/18 10:21:12;;;;;;;;;;;;;;;12.60;100.00;95419.25;10494363;28;2773;-71
2024/03/18 10:26:14;;;;;;;;;;;;;;;12.96;100.00;95422.91;10492843;28;2817;-70
2024/03/18 10:31:16;;;;;;;;;;;;;;;13.21;100.00;95421.69;10481165;28;2594;-74
2024/03/18 10:36:18;;;;;;;;;;;;;;;13.46;100.00;95423.09;10496206;28;2773;-71
2024/03/18 10:41:21;;;;;;;;;;;;;;;13.29;100.00;95417.47;10493097;28;2627;-69
2024/03/18 10:46:22;;;;;;;;;;;;;;;13.67;100.00;95417.28;10496574;28;2818;-69
2024/03/18 10:51:24;;;;;;;;;;;;;;;14.20;100.00;95424.81;10501609;28;2801;-69
2024/03/18 10:56:25;;;;;;;;;;;;;;;14.27;100.00;95431.41;10479537;28;2880;-69
2024/03/18 11:01:27;;;;;;;;;;;;;;;13.91;100.00;95428.66;10508064;28;2856;-69
2024/03/18 11:06:28;;;;;;;;;;;;;;;13.78;100.00;95429.47;10498010;28;2858;-68
2024/03/18 11:11:30;;;;;;;;;;;;;;;13.66;100.00;95432.69;10497384;28;2658;-68
2024/03/18 11:16:32;;;;;;;;;;;;;;;13.38;100.00;95431.09;10499386;28;2832;-68
2024/03/18 11:21:34;;;;;;;;;;;;;;;13.68;100.00;95432.41;10497349;28;2773;-68
2024/03/18 11:26:35;;;;;;;;;;;;;;;13.56;100.00;95432.09;10494173;28;2794;-68
2024/03/18 11:31:37;;;;;;;;;;;;;;;13.33;100.00;95439.28;10494517;28;2862;-68
2024/03/18 11:36:39;;;;;;;;;;;;;;;13.16;100.00;95435.22;10491559;28;2883;-68
2024/03/18 11:41:41;;;;;;;;;;;;;;;13.31;100.00;95442.28;10496135;28;2958;-68
2024/03/18 11:46:43;;;;;;;;;;;;;;;12.80;100.00;95437.78;10490342;28;2814;-68
2024/03/18 11:51:44;;;;;;;;;;;;;;;12.78;100.00;95437.25;10497555;28;2845;-68
2024/03/18 11:56:46;;;;;;;;;;;;;;;12.50;100.00;95438.25;10496993;28;2655;-68
2024/03/18 12:01:50;;;;;;;;;;;;;;;12.59;100.00;95436.47;10495662;28;2621;-68
2024/03/18 12:06:52;;;;;;;;;;;;;;;12.42;100.00;95443.22;10498662;28;2853;-68
2024/03/18 12:11:53;;;;;;;;;;;;;;;12.39;100.00;95440.31;10493097;28;2808;-71
2024/03/18 12:16:55;;;;;;;;;;;;;;;12.42;100.00;95445.13;10495281;28;2800;-67
2024/03/18 12:21:56;;;;;;;;;;;;;;;12.18;100.00;95442.50;10497118;28;2821;-67
2024/03/18 12:32:18;;;;;;;;;;;;;;;12.12;100.00;95438.28;10496768;28;2828;-67
2024/03/18 12:37:21;;;;;;;;;;;;;;;11.94;100.00;95441.75;10493934;28;2921;-67
2024/03/18 12:42:22;;;;;;;;;;;;;;;11.79;100.00;95440.03;10493826;28;2826;-68
2024/03/18 12:47:24;;;;;;;;;;;;;;;11.57;100.00;95454.03;10489799;28;2856;-67
2024/03/18 12:52:26;;;;;;;;;;;;;;;11.30;100.00;95455.41;10487633;28;2800;-68
2024/03/18 12:57:28;;;;;;;;;;;;;;;11.18;100.00;95463.06;10501738;28;2884;-67
2024/03/18 13:02:29;;;;;;;;;;;;;;;11.20;100.00;95468.97;10499180;28;2768;-67
2024/03/18 13:07:32;;;;;;;;;;;;;;;10.98;100.00;95474.03;10495804;28;2742;-70
2024/03/18 13:12:34;;;;;;;;;;;;;;;10.93;100.00;95474.88;10498551;28;2643;-69
2024/03/18 13:17:36;;;;;;;;;;;;;;;10.47;100.00;95474.44;10507006;28;2907;-72
2024/03/18 13:22:37;;;;;;;;;;;;;;;10.16;100.00;95474.59;10506186;28;2782;-72
2024/03/18 13:27:39;;;;;;;;;;;;;;;10.13;100.00;95485.91;10502655;28;2864;-68
2024/03/18 13:32:41;;;;;;;;;;;;;;;10.15;100.00;95485.63;10508087;28;2924;-69
2024/03/18 13:37:43;;;;;;;;;;;;;;;9.94;100.00;95482.25;10504153;28;2835;-69
2024/03/18 13:42:46;;;;;;;;;;;;;;;10.14;100.00;95492.88;10505353;28;2741;-68
2024/03/18 13:47:48;;;;;;;;;;;;;;;10.35;100.00;95490.09;10512687;28;2711;-67
2024/03/18 13:52:51;;;;;;;;;;;;;;;10.24;100.00;95497.41;10507045;28;2850;-70
2024/03/18 13:57:52;;;;;;;;;;;;;;;10.32;100.00;95501.41;10497436;28;2925;-70
2024/03/18 14:02:54;;;;;;;;;;;;;;;10.42;100.00;95501.34;10493163;28;2738;-70
2024/03/18 14:07:56;;;;;;;;;;;;;;;10.36;100.00;95505.94;10499597;28;2644;-68
2024/03/18 14:12:57;;;;;;;;;;;;;;;10.09;100.00;95497.47;10496929;28;2845;-67
2024/03/18 14:18:00;;;;;;;;;;;;;;;10.14;100.00;95510.88;10495864;28;2871;-70
2024/03/18 14:23:02;;;;;;;;;;;;;;;9.92;100.00;95500.50;10494271;28;2819;-70
2024/03/18 14:28:05;;;;;;;;;;;;;;;9.79;100.00;95506.47;10497173;28;2817;-69
2024/03/18 14:33:07;;;;;;;;;;;;;;;9.89;100.00;95503.75;10497913;28;2813;-70
2024/03/18 14:38:08;;;;;;;;;;;;;;;9.86;100.00;95506.97;10501982;28;2807;-74
2024/03/18 14:43:10;;;;;;;;;;;;;;;9.94;100.00;95509.09;10496110;28;2865;-68
2024/03/18 14:48:12;;;;;;;;;;;;;;;9.94;100.00;95509.09;10492646;28;2827;-68
2024/03/18 14:53:13;;;;;;;;;;;;;;;10.13;100.00;95509.28;10499821;28;2776;-68
2024/03/18 14:58:15;;;;;;;;;;;;;;;10.17;100.00;95505.75;10495201;28;2849;-69
2024/03/18 15:03:18;;;;;;;;;;;;;;;10.18;100.00;95510.06;10482276;28;2789;-68
2024/03/18 15:08:20;;;;;;;;;;;;;;;9.99;100.00;95503.72;10498043;28;2786;-68
2024/03/18 15:13:23;;;;;;;;;;;;;;;9.85;100.00;95505.38;10492132;28;2773;-68
2024/03/18 15:18:24;;;;;;;;;;;;;;;9.90;100.00;95508.84;10496084;28;2749;-67
2024/03/18 15:23:38;;;;;;;;;;;;;;;9.94;100.00;95509.09;10499104;28;2635;-68
2024/03/18 15:28:40;;;;;;;;;;;;;;;9.91;100.00;95509.66;10492028;28;2856;-67
2024/03/18 15:33:41;;;;;;;;;;;;;;;10.09;100.00;95510.91;10493458;28;2884;-68
2024/03/18 15:38:43;;;;;;;;;;;;;;;10.21;100.00;95514.88;10486847;28;2775;-69
2024/03/18 15:43:45;;;;;;;;;;;;;;;10.05;100.00;95516.00;10495536;28;2796;-69
2024/03/18 15:48:47;;;;;;;;;;;;;;;9.98;100.00;95521.69;10493163;28;2876;-68
2024/03/18 15:53:50;;;;;;;;;;;;;;;9.86;100.00;95523.09;10501439;28;2816;-68
2024/03/18 15:58:52;;;;;;;;;;;;;;;9.86;100.00;95523.09;10493119;28;2898;-68
2024/03/18 16:03:53;;;;;;;;;;;;;;;9.80;100.00;95519.66;10493781;28;2767;-69
2024/03/18 16:08:55;;;;;;;;;;;;;;;9.73;100.00;95529.84;10493143;28;2865;-68
2024/03/18 16:13:56;;;;;;;;;;;;;;;9.74;100.00;95543.00;10491116;28;2765;-68
2024/03/18 16:18:58;;;;;;;;;;;;;;;9.69;100.00;95544.91;10490557;28;2777;-68
2024/03/18 16:23:59;;;;;;;;;;;;;;;9.66;100.00;95551.59;10498364;28;2827;-69
2024/03/18 16:29:02;;;;;;;;;;;;;;;9.71;100.00;95548.91;10501596;28;2808;-69
2024/03/18 16:34:04;;;;;;;;;;;;;;;9.68;100.00;95556.72;10508287;28;2758;-69
2024/03/18 16:39:09;;;;;;;;;;;;;;;9.62;100.00;95563.19;10501244;28;2741;-68
2024/03/18 16:44:11;;;;;;;;;;;;;;;9.63;100.00;95565.59;10501785;28;2730;-67
2024/03/18 16:49:12;;;;;;;;;;;;;;;9.57;100.00;95580.09;10504407;28;3005;-70
2024/03/18 16:54:14;;;;;;;;;;;;;;;9.54;100.00;95582.50;10502334;28;2710;-69
2024/03/18 16:59:15;;;;;;;;;;;;;;;9.56;100.00;95577.69;10501615;28;2867;-65
2024/03/18 17:04:25;;;;;;;;;;;;;;;9.42;100.00;95588.97;10497836;28;2899;-69
2024/03/18 17:09:29;;;;;;;;;;;;;;;9.28;100.00;95593.25;10506096;28;2815;-70
2024/03/18 17:14:31;;;;;;;;;;;;;;;9.19;100.00;95603.72;10499700;28;2824;-72
2024/03/18 17:19:33;;;;;;;;;;;;;;;9.11;100.00;95622.25;10496312;28;2727;-73
2024/03/18 17:24:34;;;;;;;;;;;;;;;8.92;100.00;95628.13;10500434;28;3039;-71
2024/03/18 17:29:36;;;;;;;;;;;;;;;8.84;100.00;95627.81;10499883;28;2864;-72
2024/03/18 17:34:37;;;;;;;;;;;;;;;8.79;100.00;95638.56;10498046;28;2891;-68
2024/03/18 17:39:39;;;;;;;;;;;;;;;8.73;100.00;95639.63;10494631;28;2740;-66
2024/03/18 17:44:41;;;;;;;;;;;;;;;8.76;100.00;95639.06;10498300;28;2821;-68
2024/03/18 17:49:42;;;;;;;;;;;;;;;8.78;100.00;95658.38;10504010;28;2760;-69
2024/03/18 17:54:46;;;;;;;;;;;;;;;8.66;100.00;95658.63;10484752;28;2566;-69
2024/03/18 17:59:49;;;;;;;;;;;;;;;8.43;100.00;95677.84;10496647;28;2753;-69
2024/03/18 18:04:51;;;;;;;;;;;;;;;8.34;100.00;95686.34;10482554;28;2822;-69
2024/03/18 18:09:53;;;;;;;;;;;;;;;8.28;100.00;95683.91;10496926;28;2568;-68
2024/03/18 18:14:57;;;;;;;;;;;;;;;8.27;100.00;95695.66;10483021;28;2808;-70
2024/03/18 18:19:59;;;;;;;;;;;;;;;8.16;100.00;95696.69;10499715;28;2791;-68
2024/03/18 18:25:02;;;;;;;;;;;;;;;8.11;100.00;95692.91;10498170;28;2922;-70
2024/03/18 18:30:05;;;;;;;;;;;;;;;8.15;100.00;95705.81;10497881;28;2899;-68
2024/03/18 18:35:08;;;;;;;;;;;;;;;8.04;100.00;95713.75;10497074;28;2821;-68
2024/03/18 18:40:10;;;;;;;;;;;;;;;8.00;100.00;95723.38;10495672;28;2879;-69
2024/03/18 18:45:12;;;;;;;;;;;;;;;7.99;100.00;95726.31;10494198;28;2854;-68
2024/03/18 18:50:18;;;;;;;;;;;;;;;7.91;100.00;95730.28;10496636;28;2549;-67
2024/03/18 18:55:20;;;;;;;;;;;;;;;7.99;100.00;95737.81;10496695;28;2796;-69
2024/03/18 19:00:22;;;;;;;;;;;;;;;7.91;100.00;95734.81;10490418;28;2880;-67
2024/03/18 19:05:26;;;;;;;;;;;;;;;7.81;100.00;95735.53;10481630;28;2790;-68
2024/03/18 19:10:28;;;;;;;;;;;;;;;7.86;100.00;95732.91;10498404;28;2861;-69
2024/03/18 19:15:29;;;;;;;;;;;;;;;7.88;100.00;95738.81;10493172;28;2853;-69
2024/03/18 19:20:34;;;;;;;;;;;;;;;7.83;100.00;95739.59;10495439;28;2841;-68
2024/03/18 19:25:39;;;;;;;;;;;;;;;7.80;100.00;95750.81;10497638;28;2627;-68
2024/03/18 19:30:43;;;;;;;;;;;;;;;7.85;100.00;95742.00;10498688;22;2878;-69
2024/03/18 19:35:44;;;;;;;;;;;;;;;7.87;100.00;95745.22;10491608;28;2785;-70
2024/03/18 19:40:46;;;;;;;;;;;;;;;7.82;100.00;95761.25;10492559;28;2726;-74
2024/03/18 19:45:48;;;;;;;;;;;;;;;7.83;100.00;95755.66;10504530;28;2796;-70
2024/03/18 19:50:50;;;;;;;;;;;;;;;7.90;100.00;95765.34;10494091;28;2861;-69
2024/03/18 19:55:51;;;;;;;;;;;;;;;7.82;100.00;95763.91;10494215;28;2673;-68
2024/03/18 20:00:53;;;;;;;;;;;;;;;7.88;100.00;95757.53;10500446;28;2596;-69
2024/03/18 20:05:55;;;;;;;;;;;;;;;7.81;100.00;95757.75;10501014;28;2798;-69
2024/03/18 20:10:57;;;;;;;;;;;;;;;7.82;100.00;95764.75;10497385;28;2715;-67
2024/03/18 20:16:03;;;;;;;;;;;;;;;7.78;100.00;95762.84;10498405;28;2789;-68
2024/03/18 20:21:05;;;;;;;;;;;;;;;7.80;100.00;95760.69;10515069;27;2592;-67
2024/03/18 20:26:07;;;;;;;;;;;;;;;7.83;100.00;95755.66;10499911;28;2849;-67
2024/03/18 20:31:09;;;;;;;;;;;;;;;7.72;100.00;95758.50;10499026;28;2747;-69
2024/03/18 20:36:11;;;;;;;;;;;;;;;7.75;100.00;95763.34;10496301;28;2688;-69
2024/03/18 20:41:13;;;;;;;;;;;;;;;7.77;100.00;95762.03;10498323;28;2902;-67
2024/03/18 20:46:15;;;;;;;;;;;;;;;7.82;100.00;95763.91;10496992;28;2749;-67
2024/03/18 20:51:17;;;;;;;;;;;;;;;7.68;100.00;95763.53;10508689;28;2916;-69
2024/03/18 20:56:21;;;;;;;;;;;;;;;7.67;100.00;95767.28;10497853;28;2741;-70
2024/03/18 21:01:24;;;;;;;;;;;;;;;7.65;100.00;95763.25;10500968;28;2707;-71
2024/03/18 21:06:25;;;;;;;;;;;;;;;7.63;100.00;95771.53;10480020;28;2817;-69
2024/03/18 21:11:27;;;;;;;;;;;;;;;7.66;100.00;95772.91;10502966;28;2801;-69
2024/03/18 21:16:28;;;;;;;;;;;;;;;7.47;100.00;95778.63;10494275;28;2784;-68
2024/03/18 21:21:31;;;;;;;;;;;;;;;7.47;100.00;95783.97;10496247;28;2723;-67
2024/03/18 21:26:36;;;;;;;;;;;;;;;7.51;100.00;95770.91;10501510;28;2935;-68
2024/03/18 21:31:38;;;;;;;;;;;;;;;7.48;100.00;95769.53;10512895;27;2825;-70
2024/03/18 21:36:41;;;;;;;;;;;;;;;7.75;100.00;95772.16;10494655;28;2828;-70
2024/03/18 21:41:44;;;;;;;;;;;;;;;8.03;100.00;95765.69;10495945;28;2734;-69
2024/03/18 21:46:46;;;;;;;;;;;;;;;8.12;100.00;95779.41;10494319;28;2775;-70
2024/03/18 21:51:49;;;;;;;;;;;;;;;8.06;100.00;95764.38;10502313;28;2942;-70
2024/03/18 21:56:51;;;;;;;;;;;;;;;7.87;100.00;95774.66;10492876;28;2817;-67
2024/03/18 22:01:54;;;;;;;;;;;;;;;7.78;100.00;95770.88;10482402;28;2598;-67
2024/03/18 22:06:56;;;;;;;;;;;;;;;7.57;100.00;95773.38;10496280;28;2769;-68
2024/03/18 22:11:59;;;;;;;;;;;;;;;7.61;100.00;95778.19;10493623;28;2867;-66
2024/03/18 22:17:00;;;;;;;;;;;;;;;7.67;100.00;95771.84;10498809;28;2651;-70
2024/03/18 22:22:02;;;;;;;;;;;;;;;7.59;100.00;95792.66;10496474;28;2697;-75
2024/03/18 22:27:04;;;;;;;;;;;;;;;7.59;100.00;95792.66;10490755;28;2845;-68
2024/03/18 22:32:10;;;;;;;;;;;;;;;7.57;100.00;95789.44;10494840;28;2741;-67
2024/03/18 22:37:12;;;;;;;;;;;;;;;7.58;100.00;95795.59;10492634;28;2841;-67
2024/03/18 22:42:17;;;;;;;;;;;;;;;7.68;100.00;95795.66;10493062;28;2820;-67
2024/03/18 22:47:20;;;;;;;;;;;;;;;7.61;100.00;95797.72;10490567;28;2659;-68
2024/03/18 22:52:22;;;;;;;;;;;;;;;7.69;100.00;95791.09;10499927;28;2825;-67
2024/03/18 22:57:24;;;;;;;;;;;;;;;7.67;100.00;95803.94;10493294;28;2785;-66
2024/03/18 23:02:26;;;;;;;;;;;;;;;7.68;100.00;95794.84;10493898;28;2722;-67
2024/03/18 23:07:28;;;;;;;;;;;;;;;7.72;100.00;95807.47;10478585;28;2717;-70
2024/03/18 23:12:30;;;;;;;;;;;;;;;7.83;100.00;95817.22;10494281;28;2869;-67
2024/03/18 23:17:34;;;;;;;;;;;;;;;7.84;100.00;95810.78;10493710;28;2833;-65
2024/03/18 23:22:36;;;;;;;;;;;;;;;7.89;100.00;95812.72;10489219;28;2638;-68
2024/03/18 23:27:38;;;;;;;;;;;;;;;7.95;100.00;95817.03;10490801;28;2889;-64
2024/03/18 23:32:41;;;;;;;;;;;;;;;7.99;100.00;95823.47;10470931;28;2781;-69
2024/03/18 23:37:42;;;;;;;;;;;;;;;7.97;100.00;95819.47;10491068;28;2801;-66
2024/03/18 23:42:48;;;;;;;;;;;;;;;8.05;100.00;95825.13;10487756;28;2820;-66
2024/03/18 23:47:50;;;;;;;;;;;;;;;8.04;100.00;95823.53;10491595;28;2889;-65
2024/03/18 23:52:51;;;;;;;;;;;;;;;8.06;100.00;95832.09;10502393;28;2778;-66
2024/03/18 23:57:54;;;;;;;;;;;;;;;8.07;100.00;95833.72;10488148;28;2777;-66
